createdAt,value
2024-05-09T00:00:47.816Z,12.07
2024-05-09T00:03:35.797Z,11.65
2024-05-09T00:06:04.476Z,12.20
2024-05-09T00:08:32.485Z,12.52
2024-05-09T00:11:01.005Z,11.88
2024-05-09T00:13:28.919Z,11.73
2024-05-09T00:15:57.598Z,11.70
2024-05-09T00:18:25.808Z,11.68
2024-05-09T00:20:54.080Z,12.00
2024-05-09T00:23:21.831Z,11.77
2024-05-09T00:25:49.997Z,12.02
2024-05-09T00:28:17.832Z,11.35
2024-05-09T00:30:46.000Z,11.68
2024-05-09T00:33:13.991Z,11.98
2024-05-09T00:35:42.434Z,11.30
2024-05-09T00:38:10.913Z,11.18
2024-05-09T00:40:42.351Z,11.25
2024-05-09T00:43:12.644Z,10.98
2024-05-09T00:45:42.148Z,11.20
2024-05-09T00:48:14.136Z,10.65
2024-05-09T00:50:46.205Z,11.70
2024-05-09T00:53:16.520Z,11.35
2024-05-09T00:55:45.983Z,10.93
2024-05-09T01:00:39.377Z,10.77
2024-05-09T01:03:12.089Z,11.00
2024-05-09T01:05:43.110Z,11.60
2024-05-09T01:08:12.143Z,11.20
2024-05-09T01:10:43.763Z,10.63
2024-05-09T01:13:13.329Z,11.48
2024-05-09T01:15:41.236Z,10.90
2024-05-09T01:18:12.129Z,11.65
2024-05-09T01:20:44.006Z,11.85
2024-05-09T01:23:15.752Z,11.20
2024-05-09T01:25:46.211Z,11.90
2024-05-09T01:28:16.259Z,11.43
2024-05-09T01:30:44.166Z,11.07
2024-05-09T01:33:13.157Z,10.38
2024-05-09T01:35:42.710Z,10.52
2024-05-09T01:38:13.888Z,11.73
2024-05-09T01:40:42.708Z,12.10
2024-05-09T01:43:11.933Z,12.30
2024-05-09T01:45:41.035Z,11.65
2024-05-09T01:48:10.763Z,11.65
2024-05-09T01:50:42.145Z,11.88
2024-05-09T01:53:14.379Z,10.65
2024-05-09T01:58:11.433Z,10.75
2024-05-09T02:00:42.428Z,11.40
2024-05-09T02:03:16.331Z,11.65
2024-05-09T02:05:47.560Z,11.27
2024-05-09T02:08:19.044Z,11.00
2024-05-09T02:10:48.902Z,10.52
2024-05-09T02:13:17.950Z,12.57
2024-05-09T02:15:46.018Z,11.52
2024-05-09T02:18:14.315Z,11.98
2024-05-09T02:20:43.431Z,11.07
2024-05-09T02:23:15.033Z,10.93
2024-05-09T02:28:10.837Z,11.18
2024-05-09T02:30:41.437Z,10.63
2024-05-09T02:33:12.749Z,10.60
2024-05-09T02:35:44.003Z,10.45
2024-05-09T02:38:12.939Z,10.70
2024-05-09T02:40:41.657Z,10.82
2024-05-09T02:43:12.752Z,11.57
2024-05-09T02:45:41.655Z,12.38
2024-05-09T02:48:13.523Z,11.63
2024-05-09T02:50:44.399Z,11.65
2024-05-09T02:53:13.148Z,12.60
2024-05-09T02:55:42.567Z,11.70
2024-05-09T02:58:11.071Z,12.10
2024-05-09T03:00:41.945Z,11.73
2024-05-09T03:05:44.524Z,10.60
2024-05-09T03:08:12.933Z,10.80
2024-05-09T03:10:41.466Z,11.25
2024-05-09T03:13:12.921Z,11.38
2024-05-09T03:15:42.906Z,10.73
2024-05-09T03:18:11.632Z,10.68
2024-05-09T03:20:40.561Z,11.30
2024-05-09T03:23:10.039Z,10.57
2024-05-09T03:25:39.099Z,11.38
2024-05-09T03:28:07.359Z,9.93
2024-05-09T03:30:41.098Z,10.38
2024-05-09T03:33:13.170Z,10.38
2024-05-09T03:38:11.125Z,10.07
2024-05-09T03:40:48.912Z,9.80
2024-05-09T03:43:18.183Z,10.52
2024-05-09T03:45:49.483Z,11.95
2024-05-09T03:48:17.569Z,10.57
2024-05-09T03:50:46.053Z,10.40
2024-05-09T03:53:14.611Z,9.85
2024-05-09T03:55:43.024Z,10.32
2024-05-09T03:58:12.965Z,10.35
2024-05-09T04:00:42.622Z,11.03
2024-05-09T04:03:12.445Z,9.98
2024-05-09T04:05:42.890Z,9.88
2024-05-09T04:08:15.563Z,9.45
2024-05-09T04:10:44.149Z,10.68
2024-05-09T04:13:12.069Z,10.57
2024-05-09T04:15:40.216Z,9.50
2024-05-09T04:18:08.385Z,10.07
2024-05-09T04:20:39.720Z,9.32
2024-05-09T04:23:13.800Z,9.73
2024-05-09T04:25:45.363Z,9.82
2024-05-09T04:28:14.199Z,9.10
2024-05-09T04:30:43.116Z,8.82
2024-05-09T04:33:13.488Z,10.10
2024-05-09T04:38:13.283Z,9.70
2024-05-09T04:40:41.801Z,9.57
2024-05-09T04:43:17.393Z,10.32
2024-05-09T04:45:46.036Z,9.75
2024-05-09T04:48:13.944Z,9.20
2024-05-09T04:50:42.534Z,9.18
2024-05-09T04:53:14.754Z,8.10
2024-05-09T04:57:38.341Z,8.73
2024-05-09T05:00:11.540Z,8.57
2024-05-09T05:02:42.579Z,8.13
2024-05-09T05:05:12.064Z,9.15
2024-05-09T05:07:39.971Z,8.73
2024-05-09T05:10:14.836Z,8.43
2024-05-09T05:13:07.682Z,8.32
2024-05-09T05:15:35.755Z,9.32
2024-05-09T05:18:03.812Z,8.57
2024-05-09T05:20:33.837Z,8.32
2024-05-09T05:23:02.178Z,8.13
2024-05-09T05:25:30.436Z,8.63
2024-05-09T05:27:58.241Z,9.23
2024-05-09T05:30:29.361Z,9.30
2024-05-09T05:33:02.566Z,9.27
2024-05-09T05:35:31.328Z,8.48
2024-05-09T05:37:59.348Z,8.90
2024-05-09T05:40:33.497Z,8.52
2024-05-09T05:43:09.066Z,8.35
2024-05-09T05:45:38.043Z,7.78
2024-05-09T05:48:07.293Z,8.73
2024-05-09T05:50:38.053Z,8.50
2024-05-09T05:53:08.272Z,9.07
2024-05-09T05:55:40.086Z,8.47
2024-05-09T05:58:11.473Z,8.15
2024-05-09T06:00:41.485Z,8.32
2024-05-09T06:03:11.795Z,8.52
2024-05-09T06:05:43.188Z,8.32
2024-05-09T06:08:11.326Z,8.98
2024-05-09T06:10:41.074Z,9.75
2024-05-09T06:13:13.741Z,8.90
2024-05-09T06:15:43.220Z,9.15
2024-05-09T06:18:12.686Z,8.50
2024-05-09T06:20:43.346Z,8.88
2024-05-09T06:23:12.850Z,8.57
2024-05-09T06:25:42.399Z,9.07
2024-05-09T06:28:10.676Z,9.43
2024-05-09T06:30:42.224Z,8.85
2024-05-09T06:33:13.471Z,8.38
2024-05-09T06:35:44.943Z,8.18
2024-05-09T06:38:13.051Z,9.07
2024-05-09T06:40:43.703Z,8.43
2024-05-09T06:43:14.357Z,8.13
2024-05-09T06:45:43.009Z,9.35
2024-05-09T06:48:11.286Z,8.07
2024-05-09T06:50:40.892Z,8.00
2024-05-09T06:53:09.246Z,8.48
2024-05-09T06:55:38.004Z,9.13
2024-05-09T06:58:07.315Z,8.48
2024-05-09T07:00:39.615Z,7.55
2024-05-09T07:03:15.381Z,8.25
2024-05-09T07:05:47.246Z,7.60
2024-05-09T07:08:16.422Z,9.10
2024-05-09T07:10:45.091Z,8.40
2024-05-09T07:13:15.233Z,8.98
2024-05-09T07:15:43.860Z,8.63
2024-05-09T07:18:13.256Z,8.63
2024-05-09T07:20:42.445Z,8.75
2024-05-09T07:23:14.962Z,9.50
2024-05-09T07:25:43.294Z,8.68
2024-05-09T07:28:16.196Z,8.40
2024-05-09T07:30:44.939Z,8.68
2024-05-09T07:33:20.887Z,8.52
2024-05-09T07:35:50.759Z,8.73
2024-05-09T07:38:18.790Z,8.82
2024-05-09T07:40:47.253Z,7.82
2024-05-09T07:43:15.987Z,7.43
2024-05-09T07:45:52.035Z,8.68
2024-05-09T07:52:39.007Z,7.97
2024-05-09T07:53:47.778Z,7.82
2024-05-09T07:56:22.290Z,7.88
2024-05-09T07:58:53.777Z,8.38
2024-05-09T08:01:22.410Z,7.72
2024-05-09T08:03:50.735Z,8.50
2024-05-09T08:06:19.086Z,8.07
2024-05-09T08:08:47.814Z,8.23
2024-05-09T08:11:16.166Z,8.55
2024-05-09T08:13:44.003Z,8.30
2024-05-09T08:16:14.290Z,8.50
2024-05-09T08:18:42.641Z,8.90
2024-05-09T08:21:11.040Z,8.45
2024-05-09T08:23:38.775Z,8.15
2024-05-09T08:26:07.178Z,8.35
2024-05-09T08:28:35.106Z,8.80
2024-05-09T08:31:06.716Z,9.00
2024-05-09T08:33:35.395Z,8.23
2024-05-09T08:36:04.236Z,8.27
2024-05-09T08:38:32.035Z,8.32
2024-05-09T08:41:03.507Z,9.00
2024-05-09T08:43:31.533Z,8.40
2024-05-09T08:46:00.495Z,8.13
2024-05-09T08:48:29.310Z,8.48
2024-05-09T08:50:59.618Z,8.80
2024-05-09T08:53:27.826Z,9.13
2024-05-09T08:56:00.985Z,8.90
2024-05-09T08:58:33.540Z,8.93
2024-05-09T09:01:04.566Z,8.98
2024-05-09T09:03:34.232Z,8.77
2024-05-09T09:06:06.784Z,8.52
2024-05-09T09:08:34.755Z,8.52
2024-05-09T09:11:03.823Z,8.40
2024-05-09T09:13:31.818Z,8.52
2024-05-09T09:16:01.148Z,8.68
2024-05-09T09:18:33.241Z,8.48
2024-05-09T09:21:03.301Z,8.27
2024-05-09T09:23:31.362Z,7.90
2024-05-09T09:26:00.644Z,8.23
2024-05-09T09:28:29.646Z,8.35
2024-05-09T09:31:04.624Z,7.85
2024-05-09T09:33:35.385Z,7.95
2024-05-09T09:36:05.847Z,7.32
2024-05-09T09:38:37.436Z,7.40
2024-05-09T09:41:08.386Z,8.50
2024-05-09T09:43:37.026Z,8.55
2024-05-09T09:46:09.635Z,7.70
2024-05-09T09:48:40.635Z,8.43
2024-05-09T09:51:09.430Z,8.10
2024-05-09T09:53:38.806Z,7.60
2024-05-09T09:56:10.251Z,7.93
2024-05-09T09:58:40.185Z,7.30
2024-05-09T10:01:08.779Z,6.93
2024-05-09T10:03:37.008Z,6.70
2024-05-09T10:06:06.904Z,7.45
2024-05-09T10:08:36.051Z,7.70
2024-05-09T10:11:59.723Z,7.07
2024-05-09T10:14:31.182Z,7.78
2024-05-09T10:17:06.049Z,8.02
2024-05-09T10:19:35.352Z,8.93
2024-05-09T10:22:04.681Z,7.35
2024-05-09T10:24:50.618Z,7.97
2024-05-09T10:27:29.836Z,7.50
2024-05-09T10:30:00.397Z,8.77
2024-05-09T10:32:29.989Z,8.07
2024-05-09T10:35:01.799Z,7.63
2024-05-09T10:37:31.935Z,8.35
2024-05-09T10:40:01.395Z,7.50
2024-05-09T10:42:30.092Z,8.13
2024-05-09T10:44:59.641Z,8.18
2024-05-09T10:47:29.480Z,7.57
2024-05-09T10:49:58.071Z,7.35
2024-05-09T10:52:26.104Z,8.27
2024-05-09T10:54:54.871Z,7.50
2024-05-09T10:57:24.657Z,7.57
2024-05-09T10:59:53.156Z,6.35
2024-05-09T11:02:21.400Z,7.28
2024-05-09T11:04:50.642Z,6.93
2024-05-09T11:07:21.517Z,7.60
2024-05-09T11:09:50.221Z,8.15
2024-05-09T11:12:19.979Z,7.47
2024-05-09T11:17:23.669Z,6.85
2024-05-09T11:19:52.151Z,7.72
2024-05-09T11:22:21.617Z,7.30
2024-05-09T11:24:50.208Z,6.90
2024-05-09T11:27:21.692Z,6.53
2024-05-09T11:29:51.100Z,7.00
2024-05-09T11:32:31.056Z,6.90
2024-05-09T11:34:59.754Z,7.90
2024-05-09T11:37:27.755Z,7.68
2024-05-09T11:39:56.124Z,7.18
2024-05-09T11:42:23.980Z,6.40
2024-05-09T11:44:52.451Z,6.95
2024-05-09T11:47:21.697Z,6.35
2024-05-09T11:49:50.145Z,7.20
2024-05-09T11:52:18.109Z,7.55
2024-05-09T11:54:46.681Z,6.53
2024-05-09T11:57:14.716Z,6.22
2024-05-09T11:59:43.180Z,6.30
2024-05-09T12:02:11.329Z,5.78
2024-05-09T12:04:40.144Z,5.53
2024-05-09T12:07:11.309Z,6.05
2024-05-09T12:09:41.060Z,6.30
2024-05-09T12:12:08.947Z,5.93
2024-05-09T12:14:37.166Z,7.18
2024-05-09T12:17:05.840Z,6.63
2024-05-09T12:19:34.129Z,6.47
2024-05-09T12:22:02.131Z,6.45
2024-05-09T12:24:31.085Z,6.40
2024-05-09T12:26:59.316Z,6.35
2024-05-09T12:29:28.173Z,5.57
2024-05-09T12:31:56.154Z,5.43
2024-05-09T12:34:24.372Z,5.65
2024-05-09T12:36:52.231Z,5.13
2024-05-09T12:39:20.652Z,5.05
2024-05-09T12:41:48.382Z,5.05
2024-05-09T12:44:16.592Z,5.45
2024-05-09T12:46:44.419Z,4.78
2024-05-09T12:49:14.997Z,5.25
2024-05-09T12:51:44.150Z,5.22
2024-05-09T12:54:12.599Z,5.10
2024-05-09T12:56:40.383Z,5.80
2024-05-09T12:59:08.633Z,5.38
2024-05-09T13:01:36.462Z,5.28
2024-05-09T13:04:05.237Z,3.95
2024-05-09T13:06:33.301Z,4.32
2024-05-09T13:09:01.612Z,4.10
2024-05-09T13:11:29.795Z,4.60
2024-05-09T13:13:58.000Z,4.75
2024-05-09T13:16:26.068Z,6.30
2024-05-09T13:18:54.341Z,6.05
2024-05-09T13:21:22.226Z,5.20
2024-05-09T13:23:50.490Z,5.72
2024-05-09T13:26:18.442Z,5.65
2024-05-09T13:28:46.660Z,5.78
2024-05-09T13:31:14.650Z,4.95
2024-05-09T13:33:42.966Z,5.50
2024-05-09T13:36:11.026Z,5.43
2024-05-09T13:38:39.219Z,5.80
2024-05-09T13:41:07.116Z,5.75
2024-05-09T13:43:35.487Z,6.35
2024-05-09T13:46:03.846Z,5.82
2024-05-09T13:48:32.347Z,5.80
2024-05-09T13:51:00.392Z,6.45
2024-05-09T13:53:28.762Z,5.72
2024-05-09T13:55:56.940Z,5.28
2024-05-09T13:58:25.620Z,5.10
2024-05-09T14:00:53.567Z,5.28
2024-05-09T14:03:22.006Z,5.57
2024-05-09T14:05:51.848Z,5.38
2024-05-09T14:08:22.271Z,5.38
2024-05-09T14:10:50.972Z,5.63
2024-05-09T14:13:19.991Z,6.15
2024-05-09T14:15:48.410Z,6.35
2024-05-09T14:18:17.321Z,5.55
2024-05-09T14:20:45.327Z,6.05
2024-05-09T14:23:14.759Z,5.20
2024-05-09T14:25:43.933Z,4.70
2024-05-09T14:28:13.660Z,5.30
2024-05-09T14:30:42.203Z,4.40
2024-05-09T14:33:11.731Z,6.40
2024-05-09T14:35:39.721Z,5.85
2024-05-09T14:38:08.912Z,5.93
2024-05-09T14:40:42.195Z,6.03
2024-05-09T14:43:14.121Z,5.63
2024-05-09T14:45:43.724Z,5.22
2024-05-09T14:48:15.427Z,5.50
2024-05-09T14:50:43.757Z,5.32
2024-05-09T14:53:13.451Z,5.07
2024-05-09T14:55:43.404Z,5.65
2024-05-09T14:58:13.124Z,5.32
2024-05-09T15:00:46.653Z,6.45
2024-05-09T15:03:19.961Z,5.78
2024-05-09T15:05:48.744Z,5.72
2024-05-09T15:08:18.705Z,6.43
2024-05-09T15:10:50.810Z,6.18
2024-05-09T15:13:20.883Z,5.82
2024-05-09T15:15:49.246Z,5.60
2024-05-09T15:18:18.066Z,6.32
2024-05-09T15:20:46.249Z,6.28
2024-05-09T15:25:32.596Z,6.55
2024-05-09T15:28:01.299Z,6.88
2024-05-09T15:30:32.210Z,6.20
2024-05-09T15:33:06.721Z,7.00
2024-05-09T15:35:36.047Z,6.63
2024-05-09T15:38:04.960Z,6.90
2024-05-09T15:40:39.548Z,6.55
2024-05-09T15:43:11.101Z,6.35
2024-05-09T15:45:41.181Z,6.43
2024-05-09T15:48:11.142Z,5.78
2024-05-09T15:50:41.668Z,5.80
2024-05-09T15:53:13.204Z,5.82
2024-05-09T15:55:42.476Z,6.18
2024-05-09T15:58:11.386Z,6.38
2024-05-09T16:00:42.336Z,6.00
2024-05-09T16:03:14.246Z,5.85
2024-05-09T16:05:44.605Z,6.65
2024-05-09T16:08:14.403Z,7.07
2024-05-09T16:10:44.667Z,6.20
2024-05-09T16:13:14.719Z,6.43
2024-05-09T16:15:43.961Z,6.57
2024-05-09T16:18:12.698Z,5.88
2024-05-09T16:20:42.451Z,5.72
2024-05-09T16:23:12.763Z,6.28
2024-05-09T16:25:45.415Z,7.25
2024-05-09T16:28:13.977Z,5.95
2024-05-09T16:30:42.237Z,5.80
2024-05-09T16:33:13.499Z,5.93
2024-05-09T16:38:09.740Z,6.07
2024-05-09T16:40:40.598Z,6.43
2024-05-09T16:43:10.894Z,5.78
2024-05-09T16:45:44.693Z,5.75
2024-05-09T16:48:14.196Z,6.10
2024-05-09T16:50:42.695Z,6.80
2024-05-09T16:53:10.959Z,7.25
2024-05-09T16:55:39.315Z,6.30
2024-05-09T16:58:09.034Z,6.95
2024-05-09T17:00:43.122Z,6.20
2024-05-09T17:03:15.716Z,5.90
2024-05-09T17:05:48.608Z,5.93
2024-05-09T17:08:20.803Z,5.88
2024-05-09T17:10:50.819Z,6.00
2024-05-09T17:13:21.021Z,15.07
2024-05-09T17:15:52.925Z,7.13
2024-05-09T17:18:22.439Z,6.07
2024-05-09T17:20:53.493Z,6.00
2024-05-09T17:23:21.871Z,6.00
2024-05-09T17:25:49.920Z,5.80
2024-05-09T17:28:19.068Z,6.50
2024-05-09T17:30:48.470Z,6.55
2024-05-09T17:33:16.923Z,6.50
2024-05-09T17:35:46.155Z,7.68
2024-05-09T17:38:14.576Z,6.30
2024-05-09T17:40:42.450Z,6.28
2024-05-09T17:45:01.240Z,5.82
2024-05-09T17:47:30.047Z,5.60
2024-05-09T17:49:57.904Z,5.60
2024-05-09T17:52:26.145Z,7.80
2024-05-09T17:54:53.952Z,6.38
2024-05-09T17:57:22.468Z,5.88
2024-05-09T17:59:51.994Z,5.53
2024-05-09T18:02:20.458Z,6.05
2024-05-09T18:04:48.647Z,5.28
2024-05-09T18:07:17.174Z,4.90
2024-05-09T18:09:45.668Z,5.43
2024-05-09T18:12:14.635Z,4.95
2024-05-09T18:14:42.353Z,5.32
2024-05-09T18:17:12.558Z,4.90
2024-05-09T18:19:40.439Z,5.00
2024-05-09T18:22:09.858Z,5.18
2024-05-09T18:24:37.767Z,5.00
2024-05-09T18:27:06.311Z,5.15
2024-05-09T18:29:34.261Z,4.82
2024-05-09T18:32:02.508Z,6.47
2024-05-09T18:34:30.632Z,7.38
2024-05-09T18:37:00.896Z,7.53
2024-05-09T18:42:00.667Z,8.00
2024-05-09T18:44:28.552Z,8.55
2024-05-09T18:46:56.932Z,8.27
2024-05-09T18:49:24.861Z,8.70
2024-05-09T18:51:53.072Z,7.43
2024-05-09T18:54:20.886Z,8.05
2024-05-09T18:56:48.996Z,8.02
2024-05-09T18:59:17.139Z,8.27
2024-05-09T19:01:45.498Z,7.97
2024-05-09T19:04:13.973Z,9.07
2024-05-09T19:06:42.968Z,8.73
2024-05-09T19:09:10.826Z,8.63
2024-05-09T19:11:42.134Z,8.93
2024-05-09T19:14:09.946Z,8.68
2024-05-09T19:16:38.331Z,8.52
2024-05-09T19:19:06.792Z,8.93
2024-05-09T19:21:35.233Z,8.85
2024-05-09T19:24:03.198Z,8.32
2024-05-09T19:26:31.583Z,8.73
2024-05-09T19:28:59.481Z,8.50
2024-05-09T19:31:27.783Z,8.23
2024-05-09T19:33:55.873Z,9.02
2024-05-09T19:36:25.554Z,8.35
2024-05-09T19:38:53.449Z,8.68
2024-05-09T19:41:22.632Z,9.10
2024-05-09T19:43:50.392Z,9.05
2024-05-09T19:46:18.700Z,9.77
2024-05-09T19:48:46.731Z,10.18
2024-05-09T19:51:14.936Z,10.63
2024-05-09T19:53:42.691Z,10.20
2024-05-09T19:56:11.096Z,10.65
2024-05-09T20:00:58.727Z,10.93
2024-05-09T20:03:27.284Z,9.82
2024-05-09T20:05:55.200Z,9.55
2024-05-09T20:08:23.443Z,9.50
2024-05-09T20:10:51.267Z,9.35
2024-05-09T20:13:19.574Z,9.43
2024-05-09T20:15:47.674Z,10.63
2024-05-09T20:18:18.336Z,10.63
2024-05-09T20:20:47.822Z,10.45
2024-05-09T20:23:16.975Z,9.90
2024-05-09T20:25:44.719Z,9.95
2024-05-09T20:28:12.949Z,9.85
2024-05-09T20:30:40.889Z,9.88
2024-05-09T20:33:10.040Z,10.05
2024-05-09T20:35:38.391Z,10.52
2024-05-09T20:38:06.612Z,10.27
2024-05-09T20:40:37.776Z,10.07
2024-05-09T20:43:09.767Z,9.82
2024-05-09T20:45:38.341Z,10.00
2024-05-09T20:48:07.741Z,9.60
2024-05-09T20:50:39.972Z,9.68
2024-05-09T20:53:14.933Z,9.30
2024-05-09T20:55:44.753Z,9.70
2024-05-09T20:58:14.139Z,10.15
2024-05-09T21:00:44.853Z,8.88
2024-05-09T21:03:16.820Z,9.10
2024-05-09T21:05:46.060Z,9.20
2024-05-09T21:10:40.649Z,9.27
2024-05-09T21:13:09.024Z,10.52
2024-05-09T21:15:36.924Z,9.02
2024-05-09T21:18:05.541Z,10.13
2024-05-09T21:20:34.876Z,10.25
2024-05-09T21:23:03.941Z,9.70
2024-05-09T21:25:32.363Z,9.63
2024-05-09T21:28:01.287Z,10.00
2024-05-09T21:30:38.573Z,9.52
2024-05-09T21:33:12.956Z,9.95
2024-05-09T21:35:44.009Z,9.68
2024-05-09T21:38:14.591Z,9.90
2024-05-09T21:40:43.464Z,8.95
2024-05-09T21:43:11.816Z,8.75
2024-05-09T21:45:39.724Z,8.82
2024-05-09T21:48:08.457Z,9.43
2024-05-09T21:50:40.733Z,9.25
2024-05-09T21:53:12.078Z,8.40
2024-05-09T21:55:40.636Z,8.27
2024-05-09T21:58:08.922Z,7.45
2024-05-09T22:00:39.405Z,7.80
2024-05-09T22:03:09.697Z,7.25
2024-05-09T22:05:41.758Z,7.97
2024-05-09T22:08:11.004Z,7.47
2024-05-09T22:10:39.149Z,7.70
2024-05-09T22:13:08.550Z,6.57
2024-05-09T22:15:39.704Z,7.00
2024-05-09T22:18:10.344Z,6.38
2024-05-09T22:20:44.981Z,7.25
2024-05-09T22:23:15.813Z,6.72
2024-05-09T22:25:44.368Z,6.65
2024-05-09T22:28:14.554Z,7.05
2024-05-09T22:30:44.013Z,6.43
2024-05-09T22:33:12.848Z,6.35
2024-05-09T22:35:41.138Z,6.53
2024-05-09T22:38:09.535Z,6.28
2024-05-09T22:40:45.775Z,7.05
2024-05-09T22:43:19.535Z,6.45
2024-05-09T22:45:47.974Z,6.47
2024-05-09T22:48:16.403Z,6.43
2024-05-09T22:50:44.467Z,6.40
2024-05-09T22:53:12.663Z,6.15
2024-05-09T22:55:40.466Z,6.40
2024-05-09T22:58:08.686Z,5.68
2024-05-09T23:00:36.629Z,5.93
2024-05-09T23:03:05.094Z,6.07
2024-05-09T23:05:33.212Z,5.70
2024-05-09T23:08:02.735Z,6.00
2024-05-09T23:10:36.181Z,6.53
2024-05-09T23:13:07.576Z,6.70
2024-05-09T23:15:37.822Z,6.43
2024-05-09T23:18:06.569Z,6.25
2024-05-09T23:20:38.537Z,6.35
2024-05-09T23:23:10.602Z,6.68
2024-05-09T23:25:41.542Z,6.05
2024-05-09T23:28:11.527Z,6.28
2024-05-09T23:30:41.150Z,6.55
2024-05-09T23:33:14.777Z,6.53
2024-05-09T23:35:46.015Z,6.72
2024-05-09T23:38:14.424Z,6.47
2024-05-09T23:40:43.179Z,6.82
2024-05-09T23:43:12.784Z,6.70
2024-05-09T23:45:41.935Z,7.03
2024-05-09T23:48:10.852Z,7.05
2024-05-09T23:50:40.525Z,6.88
2024-05-09T23:53:10.130Z,6.10
2024-05-09T23:55:39.434Z,6.45
2024-05-09T23:58:08.293Z,6.72
